Aérodrome :
LOGIN :

S'inscrire | Disclaimer

   EN    FR    IT 

 










Légende :    VFR   VFR Marginal   IFR   IFR Intensif   IFR Très Intensif
Visi : 
Plafond : 
>= 8 km
>= 3000ft
5 à 8 km
1000 à 3000 ft
1500m à 5 km
500 à 1000 ft
800 à 1500m
200 à 500 ft
< 800m
< 200 ft
Symboles :   Orages  Brouillard  Fortes neiges  Fortes précipitations  Vent > 20 kt
SIGMETs :   Divers  Orages  Givrage  Turbulence  Onde Orograph.  Cendres Volcan.







- Altitude de l'aérodrome : 1090 ft
- Code IATA : CFE
- Voir les cartes d'approche


LFLC - Clermont-Ferrand Auvergne

DERNIER METAR :
  • 181430Z AUTO 27008KT 230V320 CAVOK 28/05 Q1015 NOSIG

METARs EXPIRÉS :
  • 181400Z AUTO 34004KT 250V040 CAVOK 27/06 Q1015 NOSIG
  • 181330Z AUTO 27006KT 220V340 CAVOK 27/06 Q1015 NOSIG
  • 181300Z AUTO VRB03KT CAVOK 26/05 Q1015 NOSIG
  • 181230Z AUTO VRB06KT CAVOK 26/05 Q1015 NOSIG
  • 181200Z AUTO 02007KT 330V070 CAVOK 26/05 Q1015 NOSIG

TAF TAF LFLC
Valide du 18 à 15h jusqu'au 19 à 15h UTC


181400Z 1815/1915 34004KT CAVOK
ATIS : +33 4 73 62 74 38
Pas de NOTAMs connus pour ce terrain.



MET'MAP, la Météo Aéronautique d'un coup d'oeil ! - Copyright ORBIFLY Décembre 2007 - Disclaimer

ORBIFLY MET'MAP TEAM :

Programmation & Développement : Alexandra Zaïnal
Conception & Développement : Baudouin d'Aumeries
Co-Programmation & Développement : Marc-Olivier Méhu
Soutien technique & logistique : Manuel Goepfert

Contact : metmap@orbifly.com




SOURCES & CREDITS :

   NOAA